Skip Navigation Links Skip Navigation Links

Current Weather

Farnborough, United Kingdom

For information only: do not use for flight planning or navigation.
Latest weather
Observation time Tuesday, September 28, 2021 10:50 AM BST
Local time Tuesday, September 28, 2021 11:26 AM BST
Flight conditions Visual Meteorological Conditions
Winds
Wind direction South (180°)
Winds variable from 150° to 210°
Wind speed 12 mph
Visibility 6.2 mi.
Present weather light rain showers
Sky condition
Ceiling unlimited
Cloud layer scattered clouds 3,200 ft.
Temperature 59°F
Dewpoint 54°F
Altimeter 30.03 in.Hg
Derived measurements
Relative humidity 82%
Density altitude 70 ft.
METAR EGLF 280950Z 18010KT 150V210 9999 -SHRA SCT032 15/12 Q1017

Settings

Location code

InnerDrive.Weather 4.0.6770.0 Release CLR 4.0.30319.42000
Copyright ©2018 Inner Drive Technology. All rights reserved. Portions Copyright ©1986-2018 David Braverman.

Find weather

Site navigation


Skip Navigation Links

Place info

Page info

PayPal - The safer, easier way to pay online!

Return home.

Copyright ©2021 Inner Drive Technology. Purveyors of fine, hand-crafted computer software. Page printed 2021-09-28T10:26:37 UTC.